Terminal Aerodrome Forecast
Issued by NWS Wilmington, OH

Current Version | Previous Version | Graphics & Text | Print | Product List | Glossary Off
Versions: 1 2 3 4 5 6 7 8 9 10 11 12 13

000
FTUS41 KILN 201100
TAFILN
TAF
KILN 201121Z 2012/2112 08003KT P6SM VCSH OVC015
     FM201600 02003KT P6SM BKN025
     FM210900 00000KT P6SM SCT025=

USA.gov is the U.S. government's official web portal to all federal, state and local government web resources and services.